Terminal Aerodrome Forecast
Issued by NWS Melbourne, FL

Home | Current Version | Previous Version | Text Only | Print | Product List | Glossary On
Versions: 1 2 3 4 5 6 7 8 9
387
FTUS42 KMLB 251742
TAFDAB
TAF
KDAB 251742Z 2518/2618 27009KT P6SM SCT050
     FM260300 23005KT P6SM SCT250=

USA.gov is the U.S. government's official web portal to all federal, state and local government web resources and services.